sensor_id;sensor_type;location;lat;lon;timestamp;temperature;humidity
41876;DHT22;27555;50.808;4.402;2023-03-20T00:01:28;8.70;99.90
41876;DHT22;27555;50.808;4.402;2023-03-20T00:03:55;8.60;99.90
41876;DHT22;27555;50.808;4.402;2023-03-20T00:06:23;8.60;99.90
41876;DHT22;27555;50.808;4.402;2023-03-20T00:08:51;8.50;99.90
41876;DHT22;27555;50.808;4.402;2023-03-20T00:13:58;8.50;99.90
41876;DHT22;27555;50.808;4.402;2023-03-20T00:16:33;8.40;99.90
41876;DHT22;27555;50.808;4.402;2023-03-20T00:18:59;8.40;99.90
41876;DHT22;27555;50.808;4.402;2023-03-20T00:21:24;8.50;99.90
41876;DHT22;27555;50.808;4.402;2023-03-20T00:23:50;8.40;99.90
41876;DHT22;27555;50.808;4.402;2023-03-20T00:26:17;8.40;99.90
41876;DHT22;27555;50.808;4.402;2023-03-20T00:28:45;8.40;99.90
41876;DHT22;27555;50.808;4.402;2023-03-20T00:31:49;8.30;99.90
41876;DHT22;27555;50.808;4.402;2023-03-20T00:34:17;8.30;99.90
41876;DHT22;27555;50.808;4.402;2023-03-20T00:36:43;8.30;99.90
41876;DHT22;27555;50.808;4.402;2023-03-20T00:39:09;8.30;99.90
41876;DHT22;27555;50.808;4.402;2023-03-20T00:44:32;8.40;99.90
41876;DHT22;27555;50.808;4.402;2023-03-20T00:47:00;8.50;99.90
41876;DHT22;27555;50.808;4.402;2023-03-20T00:49:29;8.60;99.90
41876;DHT22;27555;50.808;4.402;2023-03-20T00:51:56;8.80;99.90
41876;DHT22;27555;50.808;4.402;2023-03-20T00:54:23;8.90;99.90
41876;DHT22;27555;50.808;4.402;2023-03-20T00:57:06;8.90;99.90
41876;DHT22;27555;50.808;4.402;2023-03-20T00:59:40;8.90;99.90
41876;DHT22;27555;50.808;4.402;2023-03-20T01:02:07;8.90;99.90
41876;DHT22;27555;50.808;4.402;2023-03-20T01:04:39;9.00;99.90
41876;DHT22;27555;50.808;4.402;2023-03-20T01:07:08;9.00;99.90
41876;DHT22;27555;50.808;4.402;2023-03-20T01:09:35;9.00;99.90
41876;DHT22;27555;50.808;4.402;2023-03-20T01:12:01;9.10;99.90
41876;DHT22;27555;50.808;4.402;2023-03-20T01:14:27;9.30;99.90
41876;DHT22;27555;50.808;4.402;2023-03-20T01:16:53;9.30;99.90
41876;DHT22;27555;50.808;4.402;2023-03-20T01:19:19;9.30;99.90
41876;DHT22;27555;50.808;4.402;2023-03-20T01:21:45;9.10;99.90
41876;DHT22;27555;50.808;4.402;2023-03-20T01:24:10;9.10;99.90
41876;DHT22;27555;50.808;4.402;2023-03-20T01:26:39;9.40;99.90
41876;DHT22;27555;50.808;4.402;2023-03-20T01:29:22;9.30;99.90
41876;DHT22;27555;50.808;4.402;2023-03-20T01:31:48;9.30;99.90
41876;DHT22;27555;50.808;4.402;2023-03-20T01:34:14;9.30;99.90
41876;DHT22;27555;50.808;4.402;2023-03-20T01:36:54;9.50;99.90
41876;DHT22;27555;50.808;4.402;2023-03-20T01:39:22;9.50;99.90
41876;DHT22;27555;50.808;4.402;2023-03-20T01:41:53;9.40;99.90
41876;DHT22;27555;50.808;4.402;2023-03-20T01:44:25;9.50;99.90
41876;DHT22;27555;50.808;4.402;2023-03-20T01:46:52;9.70;99.90
41876;DHT22;27555;50.808;4.402;2023-03-20T01:51:44;9.50;99.90
41876;DHT22;27555;50.808;4.402;2023-03-20T01:54:19;9.40;99.90
41876;DHT22;27555;50.808;4.402;2023-03-20T01:56:52;9.30;99.90
41876;DHT22;27555;50.808;4.402;2023-03-20T01:59:24;9.30;99.90
41876;DHT22;27555;50.808;4.402;2023-03-20T02:01:51;9.40;99.90
41876;DHT22;27555;50.808;4.402;2023-03-20T02:04:18;9.60;99.90
41876;DHT22;27555;50.808;4.402;2023-03-20T02:06:46;9.40;99.90
41876;DHT22;27555;50.808;4.402;2023-03-20T02:09:11;9.40;99.90
41876;DHT22;27555;50.808;4.402;2023-03-20T02:11:38;9.30;99.90
41876;DHT22;27555;50.808;4.402;2023-03-20T02:14:05;9.20;99.90
41876;DHT22;27555;50.808;4.402;2023-03-20T02:16:31;9.30;99.90
41876;DHT22;27555;50.808;4.402;2023-03-20T02:18:57;9.30;99.90
41876;DHT22;27555;50.808;4.402;2023-03-20T02:27:31;9.30;99.90
41876;DHT22;27555;50.808;4.402;2023-03-20T02:38:27;9.10;99.90
41876;DHT22;27555;50.808;4.402;2023-03-20T02:41:00;9.20;99.90
41876;DHT22;27555;50.808;4.402;2023-03-20T02:43:59;9.30;99.90
41876;DHT22;27555;50.808;4.402;2023-03-20T02:51:39;9.30;99.90
41876;DHT22;27555;50.808;4.402;2023-03-20T02:54:07;9.30;99.90
41876;DHT22;27555;50.808;4.402;2023-03-20T02:56:58;9.30;99.90
41876;DHT22;27555;50.808;4.402;2023-03-20T03:03:09;9.30;99.90
41876;DHT22;27555;50.808;4.402;2023-03-20T03:05:26;9.20;99.90
41876;DHT22;27555;50.808;4.402;2023-03-20T03:07:58;9.10;99.90
41876;DHT22;27555;50.808;4.402;2023-03-20T03:10:29;9.20;99.90
41876;DHT22;27555;50.808;4.402;2023-03-20T03:12:57;9.10;99.90
41876;DHT22;27555;50.808;4.402;2023-03-20T03:15:37;9.10;99.90
41876;DHT22;27555;50.808;4.402;2023-03-20T03:18:06;9.10;99.90
41876;DHT22;27555;50.808;4.402;2023-03-20T03:20:37;9.20;99.90
41876;DHT22;27555;50.808;4.402;2023-03-20T03:23:04;9.20;99.90
41876;DHT22;27555;50.808;4.402;2023-03-20T03:25:37;9.10;99.90
41876;DHT22;27555;50.808;4.402;2023-03-20T03:28:25;9.10;99.90
41876;DHT22;27555;50.808;4.402;2023-03-20T03:30:53;9.00;99.90
41876;DHT22;27555;50.808;4.402;2023-03-20T03:33:30;8.70;99.90
41876;DHT22;27555;50.808;4.402;2023-03-20T03:38:50;8.80;99.90
41876;DHT22;27555;50.808;4.402;2023-03-20T03:44:19;8.80;99.90
41876;DHT22;27555;50.808;4.402;2023-03-20T03:49:23;8.90;99.90
41876;DHT22;27555;50.808;4.402;2023-03-20T03:51:54;8.90;99.90
41876;DHT22;27555;50.808;4.402;2023-03-20T03:54:47;8.90;99.90
41876;DHT22;27555;50.808;4.402;2023-03-20T03:57:18;9.00;99.90
41876;DHT22;27555;50.808;4.402;2023-03-20T03:59:47;9.00;99.90
41876;DHT22;27555;50.808;4.402;2023-03-20T04:02:16;9.00;99.90
41876;DHT22;27555;50.808;4.402;2023-03-20T04:04:45;9.00;99.90
41876;DHT22;27555;50.808;4.402;2023-03-20T04:07:13;9.10;99.90
41876;DHT22;27555;50.808;4.402;2023-03-20T04:09:39;9.00;99.90
41876;DHT22;27555;50.808;4.402;2023-03-20T04:12:05;8.90;99.90
41876;DHT22;27555;50.808;4.402;2023-03-20T04:14:30;8.70;99.90
41876;DHT22;27555;50.808;4.402;2023-03-20T04:16:56;8.80;99.90
41876;DHT22;27555;50.808;4.402;2023-03-20T04:19:22;8.70;99.90
41876;DHT22;27555;50.808;4.402;2023-03-20T04:21:47;8.90;99.90
41876;DHT22;27555;50.808;4.402;2023-03-20T04:24:13;8.90;99.90
41876;DHT22;27555;50.808;4.402;2023-03-20T04:26:39;8.90;99.90
41876;DHT22;27555;50.808;4.402;2023-03-20T04:29:05;8.90;99.90
41876;DHT22;27555;50.808;4.402;2023-03-20T04:31:31;8.90;99.90
41876;DHT22;27555;50.808;4.402;2023-03-20T04:33:57;8.90;99.90
41876;DHT22;27555;50.808;4.402;2023-03-20T04:36:22;8.90;99.90
41876;DHT22;27555;50.808;4.402;2023-03-20T04:38:48;9.10;99.90
41876;DHT22;27555;50.808;4.402;2023-03-20T04:41:14;9.10;99.90
41876;DHT22;27555;50.808;4.402;2023-03-20T04:43:39;9.00;99.90
41876;DHT22;27555;50.808;4.402;2023-03-20T04:46:05;8.90;99.90
41876;DHT22;27555;50.808;4.402;2023-03-20T04:48:31;9.10;99.90
41876;DHT22;27555;50.808;4.402;2023-03-20T04:50:56;9.00;99.90
41876;DHT22;27555;50.808;4.402;2023-03-20T04:53:22;9.00;99.90
41876;DHT22;27555;50.808;4.402;2023-03-20T04:55:48;8.80;99.90
41876;DHT22;27555;50.808;4.402;2023-03-20T04:58:15;8.80;99.90
41876;DHT22;27555;50.808;4.402;2023-03-20T05:00:42;8.70;99.90
41876;DHT22;27555;50.808;4.402;2023-03-20T05:03:09;8.80;99.90
41876;DHT22;27555;50.808;4.402;2023-03-20T05:05:34;8.70;99.90
41876;DHT22;27555;50.808;4.402;2023-03-20T05:08:03;8.60;99.90
41876;DHT22;27555;50.808;4.402;2023-03-20T05:10:29;8.80;99.90
41876;DHT22;27555;50.808;4.402;2023-03-20T05:12:56;8.70;99.90
41876;DHT22;27555;50.808;4.402;2023-03-20T05:15:21;8.80;99.90
41876;DHT22;27555;50.808;4.402;2023-03-20T05:17:47;8.70;99.90
41876;DHT22;27555;50.808;4.402;2023-03-20T05:20:13;8.80;99.90
41876;DHT22;27555;50.808;4.402;2023-03-20T05:22:38;8.90;99.90
41876;DHT22;27555;50.808;4.402;2023-03-20T05:25:04;8.80;99.90
41876;DHT22;27555;50.808;4.402;2023-03-20T05:27:30;8.90;99.90
41876;DHT22;27555;50.808;4.402;2023-03-20T05:29:56;9.00;99.90
41876;DHT22;27555;50.808;4.402;2023-03-20T05:32:21;8.90;99.90
41876;DHT22;27555;50.808;4.402;2023-03-20T05:34:47;8.90;99.90
41876;DHT22;27555;50.808;4.402;2023-03-20T05:37:12;8.90;99.90
41876;DHT22;27555;50.808;4.402;2023-03-20T05:39:38;8.90;99.90
41876;DHT22;27555;50.808;4.402;2023-03-20T05:42:04;8.90;99.90
41876;DHT22;27555;50.808;4.402;2023-03-20T05:44:29;8.90;99.90
41876;DHT22;27555;50.808;4.402;2023-03-20T05:46:55;8.80;99.90
41876;DHT22;27555;50.808;4.402;2023-03-20T05:49:21;8.70;99.90
41876;DHT22;27555;50.808;4.402;2023-03-20T05:51:46;8.80;99.90
41876;DHT22;27555;50.808;4.402;2023-03-20T05:54:12;8.90;99.90
41876;DHT22;27555;50.808;4.402;2023-03-20T05:56:38;9.00;99.90
41876;DHT22;27555;50.808;4.402;2023-03-20T05:59:03;8.90;99.90
41876;DHT22;27555;50.808;4.402;2023-03-20T06:01:29;8.90;99.90
41876;DHT22;27555;50.808;4.402;2023-03-20T06:03:54;9.00;99.90
41876;DHT22;27555;50.808;4.402;2023-03-20T06:06:20;9.00;99.90
41876;DHT22;27555;50.808;4.402;2023-03-20T06:08:46;9.00;99.90
41876;DHT22;27555;50.808;4.402;2023-03-20T06:11:12;9.00;99.90
41876;DHT22;27555;50.808;4.402;2023-03-20T06:13:37;9.00;99.90
41876;DHT22;27555;50.808;4.402;2023-03-20T06:16:03;9.10;99.90
41876;DHT22;27555;50.808;4.402;2023-03-20T06:18:29;9.00;99.90
41876;DHT22;27555;50.808;4.402;2023-03-20T06:20:56;9.00;99.90
41876;DHT22;27555;50.808;4.402;2023-03-20T06:23:22;8.90;99.90
41876;DHT22;27555;50.808;4.402;2023-03-20T06:25:48;8.90;99.90
41876;DHT22;27555;50.808;4.402;2023-03-20T06:28:14;9.20;99.90
41876;DHT22;27555;50.808;4.402;2023-03-20T06:30:39;9.20;99.90
41876;DHT22;27555;50.808;4.402;2023-03-20T06:33:05;9.10;99.90
41876;DHT22;27555;50.808;4.402;2023-03-20T06:35:31;9.30;99.90
41876;DHT22;27555;50.808;4.402;2023-03-20T06:37:58;9.20;99.90
41876;DHT22;27555;50.808;4.402;2023-03-20T06:40:24;8.80;99.90
41876;DHT22;27555;50.808;4.402;2023-03-20T06:42:51;8.90;99.90
41876;DHT22;27555;50.808;4.402;2023-03-20T06:45:17;9.00;99.90
41876;DHT22;27555;50.808;4.402;2023-03-20T06:47:43;9.10;99.90
41876;DHT22;27555;50.808;4.402;2023-03-20T06:50:09;9.10;99.90
41876;DHT22;27555;50.808;4.402;2023-03-20T06:52:35;9.10;99.90
41876;DHT22;27555;50.808;4.402;2023-03-20T06:55:00;9.10;99.90
41876;DHT22;27555;50.808;4.402;2023-03-20T06:57:26;9.00;99.90
41876;DHT22;27555;50.808;4.402;2023-03-20T06:59:52;9.00;99.90
41876;DHT22;27555;50.808;4.402;2023-03-20T07:02:18;9.00;99.90
41876;DHT22;27555;50.808;4.402;2023-03-20T07:04:43;9.10;99.90
41876;DHT22;27555;50.808;4.402;2023-03-20T07:07:09;9.10;99.90
41876;DHT22;27555;50.808;4.402;2023-03-20T07:09:35;9.20;99.90
41876;DHT22;27555;50.808;4.402;2023-03-20T07:12:01;8.90;99.90
41876;DHT22;27555;50.808;4.402;2023-03-20T07:14:27;8.90;99.90
41876;DHT22;27555;50.808;4.402;2023-03-20T07:16:52;8.90;99.90
41876;DHT22;27555;50.808;4.402;2023-03-20T07:19:19;8.90;99.90
41876;DHT22;27555;50.808;4.402;2023-03-20T07:21:44;9.20;99.90
41876;DHT22;27555;50.808;4.402;2023-03-20T07:24:10;8.90;99.90
41876;DHT22;27555;50.808;4.402;2023-03-20T07:26:36;9.00;99.90
41876;DHT22;27555;50.808;4.402;2023-03-20T07:29:02;8.90;99.90
41876;DHT22;27555;50.808;4.402;2023-03-20T07:31:28;9.00;99.90
41876;DHT22;27555;50.808;4.402;2023-03-20T07:33:55;9.30;99.90
41876;DHT22;27555;50.808;4.402;2023-03-20T07:36:21;9.10;99.90
41876;DHT22;27555;50.808;4.402;2023-03-20T07:38:46;9.20;99.90
41876;DHT22;27555;50.808;4.402;2023-03-20T07:41:12;9.10;99.90
41876;DHT22;27555;50.808;4.402;2023-03-20T07:43:38;9.20;99.90
41876;DHT22;27555;50.808;4.402;2023-03-20T07:46:05;9.40;99.90
41876;DHT22;27555;50.808;4.402;2023-03-20T07:48:31;9.70;99.90
41876;DHT22;27555;50.808;4.402;2023-03-20T07:50:57;9.70;99.90
41876;DHT22;27555;50.808;4.402;2023-03-20T07:53:23;10.00;99.90
41876;DHT22;27555;50.808;4.402;2023-03-20T07:55:48;9.90;99.90
41876;DHT22;27555;50.808;4.402;2023-03-20T07:58:14;10.00;99.90
41876;DHT22;27555;50.808;4.402;2023-03-20T08:00:40;10.00;99.90
41876;DHT22;27555;50.808;4.402;2023-03-20T08:03:05;10.20;99.90
41876;DHT22;27555;50.808;4.402;2023-03-20T08:05:32;10.10;99.90
41876;DHT22;27555;50.808;4.402;2023-03-20T08:07:57;10.00;99.90
41876;DHT22;27555;50.808;4.402;2023-03-20T08:10:23;10.00;99.90
41876;DHT22;27555;50.808;4.402;2023-03-20T08:12:48;10.10;99.90
41876;DHT22;27555;50.808;4.402;2023-03-20T08:15:14;10.10;99.90
41876;DHT22;27555;50.808;4.402;2023-03-20T08:17:44;10.10;99.90
41876;DHT22;27555;50.808;4.402;2023-03-20T08:20:12;10.20;99.90
41876;DHT22;27555;50.808;4.402;2023-03-20T08:22:39;10.30;99.90
41876;DHT22;27555;50.808;4.402;2023-03-20T08:25:05;10.40;99.90
41876;DHT22;27555;50.808;4.402;2023-03-20T08:27:33;10.40;99.90
41876;DHT22;27555;50.808;4.402;2023-03-20T08:29:59;10.10;99.90
41876;DHT22;27555;50.808;4.402;2023-03-20T08:32:24;10.10;99.90
41876;DHT22;27555;50.808;4.402;2023-03-20T08:34:51;10.10;99.90
41876;DHT22;27555;50.808;4.402;2023-03-20T08:37:17;10.10;99.90
41876;DHT22;27555;50.808;4.402;2023-03-20T08:39:42;10.20;99.90
41876;DHT22;27555;50.808;4.402;2023-03-20T08:42:08;10.20;99.90
41876;DHT22;27555;50.808;4.402;2023-03-20T08:44:34;10.20;99.90
41876;DHT22;27555;50.808;4.402;2023-03-20T08:47:00;10.00;99.90
41876;DHT22;27555;50.808;4.402;2023-03-20T08:49:25;10.30;99.90
41876;DHT22;27555;50.808;4.402;2023-03-20T08:51:52;10.50;99.90
41876;DHT22;27555;50.808;4.402;2023-03-20T08:54:17;10.30;99.90
41876;DHT22;27555;50.808;4.402;2023-03-20T08:56:44;10.50;99.90
41876;DHT22;27555;50.808;4.402;2023-03-20T08:59:11;10.50;99.90
41876;DHT22;27555;50.808;4.402;2023-03-20T09:01:37;10.50;99.90
41876;DHT22;27555;50.808;4.402;2023-03-20T09:04:03;10.60;99.90
41876;DHT22;27555;50.808;4.402;2023-03-20T09:06:29;10.60;99.90
41876;DHT22;27555;50.808;4.402;2023-03-20T09:08:55;10.30;99.90
41876;DHT22;27555;50.808;4.402;2023-03-20T09:11:22;10.30;99.90
41876;DHT22;27555;50.808;4.402;2023-03-20T09:13:47;10.50;99.90
41876;DHT22;27555;50.808;4.402;2023-03-20T09:16:13;10.50;99.90
41876;DHT22;27555;50.808;4.402;2023-03-20T09:18:39;10.80;99.90
41876;DHT22;27555;50.808;4.402;2023-03-20T09:21:05;10.80;99.90
41876;DHT22;27555;50.808;4.402;2023-03-20T09:23:31;10.70;99.90
41876;DHT22;27555;50.808;4.402;2023-03-20T09:25:56;10.60;99.90
41876;DHT22;27555;50.808;4.402;2023-03-20T09:28:22;10.60;99.90
41876;DHT22;27555;50.808;4.402;2023-03-20T09:30:48;10.80;99.90
41876;DHT22;27555;50.808;4.402;2023-03-20T09:33:13;11.00;99.90
41876;DHT22;27555;50.808;4.402;2023-03-20T09:35:39;11.00;99.90
41876;DHT22;27555;50.808;4.402;2023-03-20T09:38:05;10.90;99.90
41876;DHT22;27555;50.808;4.402;2023-03-20T09:46:45;10.90;99.90
41876;DHT22;27555;50.808;4.402;2023-03-20T09:52:02;11.20;99.90
41876;DHT22;27555;50.808;4.402;2023-03-20T09:57:01;11.20;99.90
41876;DHT22;27555;50.808;4.402;2023-03-20T09:59:28;11.30;99.90
41876;DHT22;27555;50.808;4.402;2023-03-20T10:01:56;11.70;99.70
41876;DHT22;27555;50.808;4.402;2023-03-20T10:04:25;11.90;98.90
41876;DHT22;27555;50.808;4.402;2023-03-20T10:06:52;11.90;98.90
41876;DHT22;27555;50.808;4.402;2023-03-20T10:09:23;11.50;99.60
41876;DHT22;27555;50.808;4.402;2023-03-20T10:11:57;11.50;99.60
41876;DHT22;27555;50.808;4.402;2023-03-20T10:14:58;11.40;99.60
41876;DHT22;27555;50.808;4.402;2023-03-20T10:23:11;11.80;99.30
41876;DHT22;27555;50.808;4.402;2023-03-20T10:25:44;11.70;99.40
41876;DHT22;27555;50.808;4.402;2023-03-20T10:28:21;11.80;99.40
41876;DHT22;27555;50.808;4.402;2023-03-20T10:31:17;11.90;99.20
41876;DHT22;27555;50.808;4.402;2023-03-20T10:36:34;12.50;98.50
41876;DHT22;27555;50.808;4.402;2023-03-20T10:41:52;12.90;98.00
41876;DHT22;27555;50.808;4.402;2023-03-20T10:44:48;13.20;97.90
41876;DHT22;27555;50.808;4.402;2023-03-20T10:47:17;13.10;97.60
41876;DHT22;27555;50.808;4.402;2023-03-20T10:49:51;12.90;98.00
41876;DHT22;27555;50.808;4.402;2023-03-20T10:52:23;13.00;98.00
41876;DHT22;27555;50.808;4.402;2023-03-20T10:54:54;13.00;97.90
41876;DHT22;27555;50.808;4.402;2023-03-20T10:57:26;13.20;97.60
41876;DHT22;27555;50.808;4.402;2023-03-20T10:59:56;13.30;97.70
41876;DHT22;27555;50.808;4.402;2023-03-20T11:02:28;13.60;97.50
41876;DHT22;27555;50.808;4.402;2023-03-20T11:04:54;13.70;97.10
41876;DHT22;27555;50.808;4.402;2023-03-20T11:07:31;13.80;96.90
41876;DHT22;27555;50.808;4.402;2023-03-20T11:12:39;13.30;97.30
41876;DHT22;27555;50.808;4.402;2023-03-20T11:17:51;13.10;98.00
41876;DHT22;27555;50.808;4.402;2023-03-20T11:20:16;13.20;97.60
41876;DHT22;27555;50.808;4.402;2023-03-20T11:22:42;13.30;97.70
41876;DHT22;27555;50.808;4.402;2023-03-20T11:25:22;13.20;97.40
41876;DHT22;27555;50.808;4.402;2023-03-20T11:27:48;12.80;97.90
41876;DHT22;27555;50.808;4.402;2023-03-20T11:30:15;12.80;98.00
41876;DHT22;27555;50.808;4.402;2023-03-20T11:32:47;12.90;98.10
41876;DHT22;27555;50.808;4.402;2023-03-20T11:35:28;13.20;98.00
41876;DHT22;27555;50.808;4.402;2023-03-20T11:38:14;13.30;97.30
41876;DHT22;27555;50.808;4.402;2023-03-20T11:40:40;13.10;97.80
41876;DHT22;27555;50.808;4.402;2023-03-20T11:43:12;13.40;97.40
41876;DHT22;27555;50.808;4.402;2023-03-20T11:45:43;13.50;97.00
41876;DHT22;27555;50.808;4.402;2023-03-20T11:48:21;14.10;96.70
41876;DHT22;27555;50.808;4.402;2023-03-20T11:51:04;14.20;96.10
41876;DHT22;27555;50.808;4.402;2023-03-20T11:53:33;14.30;95.80
41876;DHT22;27555;50.808;4.402;2023-03-20T11:56:09;14.30;95.90
41876;DHT22;27555;50.808;4.402;2023-03-20T12:01:23;14.00;96.00
41876;DHT22;27555;50.808;4.402;2023-03-20T12:03:52;13.90;96.30
41876;DHT22;27555;50.808;4.402;2023-03-20T12:06:28;13.90;96.50
41876;DHT22;27555;50.808;4.402;2023-03-20T12:09:04;13.80;96.60
41876;DHT22;27555;50.808;4.402;2023-03-20T12:12:53;13.90;96.60
41876;DHT22;27555;50.808;4.402;2023-03-20T12:14:56;14.60;96.10
41876;DHT22;27555;50.808;4.402;2023-03-20T12:23:27;17.10;93.00
41876;DHT22;27555;50.808;4.402;2023-03-20T12:26:13;18.50;92.00
41876;DHT22;27555;50.808;4.402;2023-03-20T12:31:48;18.30;91.50
41876;DHT22;27555;50.808;4.402;2023-03-20T12:34:46;17.80;91.80
41876;DHT22;27555;50.808;4.402;2023-03-20T12:37:14;17.90;91.70
41876;DHT22;27555;50.808;4.402;2023-03-20T12:39:52;17.90;91.90
41876;DHT22;27555;50.808;4.402;2023-03-20T12:42:41;18.10;91.60
41876;DHT22;27555;50.808;4.402;2023-03-20T12:45:52;17.50;91.80
41876;DHT22;27555;50.808;4.402;2023-03-20T12:48:51;17.20;92.30
41876;DHT22;27555;50.808;4.402;2023-03-20T12:52:47;17.00;92.70
41876;DHT22;27555;50.808;4.402;2023-03-20T13:00:17;16.40;93.00
41876;DHT22;27555;50.808;4.402;2023-03-20T13:08:02;15.40;94.40
41876;DHT22;27555;50.808;4.402;2023-03-20T13:10:46;15.50;94.40
41876;DHT22;27555;50.808;4.402;2023-03-20T13:13:27;15.30;94.80
41876;DHT22;27555;50.808;4.402;2023-03-20T13:21:43;15.00;95.30
41876;DHT22;27555;50.808;4.402;2023-03-20T13:30:11;14.30;96.50
41876;DHT22;27555;50.808;4.402;2023-03-20T13:37:54;14.30;96.50
41876;DHT22;27555;50.808;4.402;2023-03-20T13:42:56;14.60;96.00
41876;DHT22;27555;50.808;4.402;2023-03-20T13:58:51;14.40;96.20
41876;DHT22;27555;50.808;4.402;2023-03-20T14:01:30;14.20;96.30
41876;DHT22;27555;50.808;4.402;2023-03-20T14:04:01;14.20;96.40
41876;DHT22;27555;50.808;4.402;2023-03-20T14:08:57;13.90;96.80
41876;DHT22;27555;50.808;4.402;2023-03-20T14:13:51;13.80;97.10
41876;DHT22;27555;50.808;4.402;2023-03-20T14:16:18;13.60;97.30
41876;DHT22;27555;50.808;4.402;2023-03-20T14:18:47;13.90;97.20
41876;DHT22;27555;50.808;4.402;2023-03-20T14:21:18;13.50;97.60
41876;DHT22;27555;50.808;4.402;2023-03-20T14:24:01;13.30;98.10
41876;DHT22;27555;50.808;4.402;2023-03-20T14:26:30;13.50;98.10
41876;DHT22;27555;50.808;4.402;2023-03-20T14:31:30;13.70;97.90
41876;DHT22;27555;50.808;4.402;2023-03-20T14:34:19;14.00;97.60
41876;DHT22;27555;50.808;4.402;2023-03-20T14:37:01;14.10;97.50
41876;DHT22;27555;50.808;4.402;2023-03-20T14:39:50;13.90;97.80
41876;DHT22;27555;50.808;4.402;2023-03-20T14:45:51;14.20;97.70
41876;DHT22;27555;50.808;4.402;2023-03-20T14:48:51;14.30;98.00
41876;DHT22;27555;50.808;4.402;2023-03-20T14:51:32;14.20;98.20
41876;DHT22;27555;50.808;4.402;2023-03-20T14:54:28;14.20;98.20
41876;DHT22;27555;50.808;4.402;2023-03-20T14:56:54;14.40;97.80
41876;DHT22;27555;50.808;4.402;2023-03-20T14:59:22;14.60;97.50
41876;DHT22;27555;50.808;4.402;2023-03-20T15:01:58;14.50;97.70
41876;DHT22;27555;50.808;4.402;2023-03-20T15:09:25;14.50;97.70
41876;DHT22;27555;50.808;4.402;2023-03-20T15:11:53;14.40;97.80
41876;DHT22;27555;50.808;4.402;2023-03-20T15:14:27;14.20;98.10
41876;DHT22;27555;50.808;4.402;2023-03-20T15:17:01;14.40;97.70
41876;DHT22;27555;50.808;4.402;2023-03-20T15:19:27;14.30;97.80
41876;DHT22;27555;50.808;4.402;2023-03-20T15:21:54;13.60;99.00
41876;DHT22;27555;50.808;4.402;2023-03-20T15:24:28;13.50;99.30
41876;DHT22;27555;50.808;4.402;2023-03-20T15:26:57;13.90;99.00
41876;DHT22;27555;50.808;4.402;2023-03-20T15:29:24;14.00;98.60
41876;DHT22;27555;50.808;4.402;2023-03-20T15:31:54;13.90;98.80
41876;DHT22;27555;50.808;4.402;2023-03-20T15:34:29;13.80;98.90
41876;DHT22;27555;50.808;4.402;2023-03-20T15:36:58;13.70;99.10
41876;DHT22;27555;50.808;4.402;2023-03-20T15:39:27;13.70;99.30
41876;DHT22;27555;50.808;4.402;2023-03-20T15:42:14;13.60;99.60
41876;DHT22;27555;50.808;4.402;2023-03-20T15:44:44;13.90;99.20
41876;DHT22;27555;50.808;4.402;2023-03-20T15:49:41;13.70;99.60
41876;DHT22;27555;50.808;4.402;2023-03-20T15:52:40;13.80;99.60
41876;DHT22;27555;50.808;4.402;2023-03-20T15:55:13;14.00;99.40
41876;DHT22;27555;50.808;4.402;2023-03-20T15:57:42;14.00;99.10
41876;DHT22;27555;50.808;4.402;2023-03-20T16:02:48;13.60;99.50
41876;DHT22;27555;50.808;4.402;2023-03-20T16:05:15;13.50;99.80
41876;DHT22;27555;50.808;4.402;2023-03-20T16:07:42;13.60;99.60
41876;DHT22;27555;50.808;4.402;2023-03-20T16:12:53;13.60;99.50
41876;DHT22;27555;50.808;4.402;2023-03-20T16:15:22;13.70;99.60
41876;DHT22;27555;50.808;4.402;2023-03-20T16:17:50;13.60;99.80
41876;DHT22;27555;50.808;4.402;2023-03-20T16:20:17;13.90;99.10
41876;DHT22;27555;50.808;4.402;2023-03-20T16:22:44;14.00;99.10
41876;DHT22;27555;50.808;4.402;2023-03-20T16:25:15;13.60;99.40
41876;DHT22;27555;50.808;4.402;2023-03-20T16:27:44;13.70;99.50
41876;DHT22;27555;50.808;4.402;2023-03-20T16:30:21;13.40;99.70
41876;DHT22;27555;50.808;4.402;2023-03-20T16:32:53;13.50;99.70
41876;DHT22;27555;50.808;4.402;2023-03-20T16:35:24;13.30;99.90
41876;DHT22;27555;50.808;4.402;2023-03-20T16:37:58;13.30;99.90
41876;DHT22;27555;50.808;4.402;2023-03-20T16:42:53;13.50;99.90
41876;DHT22;27555;50.808;4.402;2023-03-20T16:45:32;13.40;99.90
41876;DHT22;27555;50.808;4.402;2023-03-20T16:50:40;13.20;99.90
41876;DHT22;27555;50.808;4.402;2023-03-20T16:53:16;13.40;99.90
41876;DHT22;27555;50.808;4.402;2023-03-20T16:55:46;13.30;99.90
41876;DHT22;27555;50.808;4.402;2023-03-20T16:58:23;13.30;99.90
41876;DHT22;27555;50.808;4.402;2023-03-20T17:03:30;13.30;99.90
41876;DHT22;27555;50.808;4.402;2023-03-20T17:11:25;13.90;99.90
41876;DHT22;27555;50.808;4.402;2023-03-20T17:13:52;13.80;99.90
41876;DHT22;27555;50.808;4.402;2023-03-20T17:16:19;13.50;99.90
41876;DHT22;27555;50.808;4.402;2023-03-20T17:18:46;13.40;99.90
41876;DHT22;27555;50.808;4.402;2023-03-20T17:21:12;13.30;99.90
41876;DHT22;27555;50.808;4.402;2023-03-20T17:23:38;13.20;99.90
41876;DHT22;27555;50.808;4.402;2023-03-20T17:26:09;13.20;99.90
41876;DHT22;27555;50.808;4.402;2023-03-20T17:28:35;13.30;99.90
41876;DHT22;27555;50.808;4.402;2023-03-20T17:31:01;13.10;99.90
41876;DHT22;27555;50.808;4.402;2023-03-20T17:33:30;13.10;99.90
41876;DHT22;27555;50.808;4.402;2023-03-20T17:35:58;13.00;99.90
41876;DHT22;27555;50.808;4.402;2023-03-20T17:38:24;12.90;99.90
41876;DHT22;27555;50.808;4.402;2023-03-20T17:40:50;12.80;99.90
41876;DHT22;27555;50.808;4.402;2023-03-20T17:43:18;12.70;99.90
41876;DHT22;27555;50.808;4.402;2023-03-20T17:45:45;13.00;99.90
41876;DHT22;27555;50.808;4.402;2023-03-20T17:48:19;13.10;99.90
41876;DHT22;27555;50.808;4.402;2023-03-20T17:50:47;12.70;99.90
41876;DHT22;27555;50.808;4.402;2023-03-20T17:53:21;12.70;99.90
41876;DHT22;27555;50.808;4.402;2023-03-20T17:55:49;12.80;99.90
41876;DHT22;27555;50.808;4.402;2023-03-20T17:58:19;12.60;99.90
41876;DHT22;27555;50.808;4.402;2023-03-20T18:00:50;12.80;99.90
41876;DHT22;27555;50.808;4.402;2023-03-20T18:03:17;12.60;99.90
41876;DHT22;27555;50.808;4.402;2023-03-20T18:05:48;12.70;99.90
41876;DHT22;27555;50.808;4.402;2023-03-20T18:08:17;12.80;99.90
41876;DHT22;27555;50.808;4.402;2023-03-20T18:10:46;12.90;99.90
41876;DHT22;27555;50.808;4.402;2023-03-20T18:13:12;12.80;99.90
41876;DHT22;27555;50.808;4.402;2023-03-20T18:15:38;12.90;99.90
41876;DHT22;27555;50.808;4.402;2023-03-20T18:18:06;12.90;99.90
41876;DHT22;27555;50.808;4.402;2023-03-20T18:20:34;12.80;99.90
41876;DHT22;27555;50.808;4.402;2023-03-20T18:23:00;12.80;99.90
41876;DHT22;27555;50.808;4.402;2023-03-20T18:25:26;12.90;99.90
41876;DHT22;27555;50.808;4.402;2023-03-20T18:27:53;13.00;99.90
41876;DHT22;27555;50.808;4.402;2023-03-20T18:30:21;12.80;99.90
41876;DHT22;27555;50.808;4.402;2023-03-20T18:32:47;12.70;99.90
41876;DHT22;27555;50.808;4.402;2023-03-20T18:35:13;12.90;99.90